Time;durP1;ratioP1;P1;durP2;ratioP2;P2;SDS_P1;SDS_P2;PMS_P1;PMS_P2;Temp;Humidity;BMP_temperature;BMP_pressure;BME280_temperature;BME280_humidity;BME280_pressure;Samples;Min_cycle;Max_cycle;Signal;HPM_P1;HPM_P2
2023/10/13 00:00:25;;;;;;;47.33;22.95;;;15.90;99.90;;;;;;5046017;28;20049;-62
2023/10/13 00:02:52;;;;;;;44.85;23.38;;;15.80;99.90;;;;;;5030827;28;20657;-62
2023/10/13 00:05:19;;;;;;;39.22;22.38;;;15.80;99.90;;;;;;5021233;28;20065;-63
2023/10/13 00:07:45;;;;;;;41.90;22.35;;;15.90;99.90;;;;;;5020393;28;20900;-63
2023/10/13 00:10:11;;;;;;;41.78;22.02;;;15.80;99.90;;;;;;5028079;28;20056;-63
2023/10/13 00:12:37;;;;;;;40.15;21.25;;;15.80;99.90;;;;;;5018286;28;20060;-62
2023/10/13 00:15:06;;;;;;;41.63;20.67;;;15.80;99.90;;;;;;5030472;28;20055;-62
2023/10/13 00:17:32;;;;;;;34.72;20.33;;;15.80;99.90;;;;;;5024791;28;20200;-62
2023/10/13 00:20:00;;;;;;;35.97;20.17;;;15.90;99.90;;;;;;5022329;28;20045;-63
2023/10/13 00:22:27;;;;;;;37.85;20.00;;;15.80;99.90;;;;;;5053341;28;20044;-63
2023/10/13 00:25:03;;;;;;;37.38;19.77;;;15.90;99.90;;;;;;5107633;27;20529;-62
2023/10/13 00:27:29;;;;;;;37.90;18.98;;;15.90;99.90;;;;;;5098959;27;20047;-62
2023/10/13 00:30:17;;;;;;;36.58;19.05;;;15.90;99.90;;;;;;5105535;27;20042;-62
2023/10/13 00:32:53;;;;;;;35.10;19.88;;;15.90;99.90;;;;;;5101185;27;20553;-62
2023/10/13 00:35:25;;;;;;;34.80;19.85;;;15.90;99.90;;;;;;5131063;27;20126;-63
2023/10/13 00:38:03;;;;;;;30.52;18.42;;;15.90;99.90;;;;;;5105159;27;20435;-62
2023/10/13 00:43:03;;;;;;;33.83;18.80;;;15.90;99.90;;;;;;5120635;27;20046;-62
2023/10/13 00:45:33;;;;;;;30.13;19.42;;;15.90;99.90;;;;;;5103605;27;20035;-62
2023/10/13 00:48:01;;;;;;;35.60;19.05;;;15.90;99.90;;;;;;5111492;27;20039;-62
2023/10/13 00:50:29;;;;;;;35.97;19.08;;;15.90;99.90;;;;;;5125091;27;20494;-62
2023/10/13 00:52:56;;;;;;;30.42;19.55;;;15.90;99.90;;;;;;5100484;27;20649;-63
2023/10/13 00:55:22;;;;;;;30.67;18.13;;;15.90;99.90;;;;;;5100734;27;20043;-63
2023/10/13 00:57:54;;;;;;;36.28;20.00;;;16.00;99.90;;;;;;5118131;27;20046;-62
2023/10/13 01:00:24;;;;;;;37.47;19.23;;;16.00;99.90;;;;;;5108022;27;20035;-62
2023/10/13 01:02:56;;;;;;;34.70;19.60;;;15.90;99.90;;;;;;5110660;27;20126;-63
2023/10/13 01:05:23;;;;;;;36.10;19.38;;;15.90;99.90;;;;;;5111559;27;20078;-63
2023/10/13 01:07:52;;;;;;;36.63;20.77;;;15.90;99.90;;;;;;5128656;27;20069;-62
2023/10/13 01:10:19;;;;;;;36.78;20.70;;;15.90;99.90;;;;;;5123371;27;20959;-62
2023/10/13 01:12:47;;;;;;;35.28;21.52;;;15.90;99.90;;;;;;5104843;27;20043;-62
2023/10/13 01:15:18;;;;;;;31.42;19.17;;;16.00;99.90;;;;;;5100962;27;20239;-63
2023/10/13 01:17:46;;;;;;;35.03;20.70;;;16.00;99.90;;;;;;5103796;27;20043;-62
2023/10/13 01:20:42;;;;;;;35.10;20.60;;;16.00;99.90;;;;;;5127330;27;20051;-63
2023/10/13 01:23:18;;;;;;;36.08;21.13;;;16.00;99.90;;;;;;5101301;27;20037;-63
2023/10/13 01:25:44;;;;;;;40.90;21.73;;;16.00;99.90;;;;;;5099432;27;20054;-63
2023/10/13 01:28:10;;;;;;;34.60;21.17;;;16.00;99.90;;;;;;5117858;27;20073;-62
2023/10/13 01:30:38;;;;;;;32.97;20.73;;;16.00;99.90;;;;;;5106262;27;20075;-63
2023/10/13 01:33:04;;;;;;;37.35;21.73;;;16.00;99.90;;;;;;5109266;27;20053;-62
2023/10/13 01:35:37;;;;;;;30.85;20.50;;;16.00;99.90;;;;;;5121331;27;20047;-62
2023/10/13 01:38:03;;;;;;;33.95;21.05;;;16.00;99.90;;;;;;5105511;27;20038;-62
2023/10/13 01:40:33;;;;;;;32.38;21.65;;;16.00;99.90;;;;;;5110267;27;20043;-63
2023/10/13 01:42:59;;;;;;;31.73;20.77;;;16.00;99.90;;;;;;5109119;27;20050;-64
2023/10/13 01:45:28;;;;;;;29.13;19.98;;;16.00;99.90;;;;;;5105468;27;20051;-62
2023/10/13 01:47:54;;;;;;;30.83;20.38;;;16.00;99.90;;;;;;5093298;27;20050;-62
2023/10/13 01:50:27;;;;;;;28.73;20.33;;;16.00;99.90;;;;;;5105585;27;20542;-62
2023/10/13 01:53:10;;;;;;;27.67;19.00;;;16.00;99.90;;;;;;5106196;27;20042;-61
2023/10/13 01:55:42;;;;;;;27.42;20.08;;;16.00;99.90;;;;;;5131703;27;20136;-62
2023/10/13 01:58:15;;;;;;;30.97;21.07;;;16.00;99.90;;;;;;5112256;27;20039;-62
2023/10/13 02:00:47;;;;;;;32.35;21.15;;;16.00;99.90;;;;;;5113580;27;20127;-63
2023/10/13 02:03:16;;;;;;;;;;;16.00;99.90;;;;;;5113561;27;20046;-63
2023/10/13 02:05:48;;;;;;;28.60;19.80;;;16.00;99.90;;;;;;5113853;27;19919;-62
2023/10/13 02:08:25;;;;;;;31.33;20.42;;;16.00;99.90;;;;;;5093543;27;20039;-62
2023/10/13 02:10:55;;;;;;;29.10;20.83;;;16.00;99.90;;;;;;5107343;27;20078;-62
2023/10/13 02:13:23;;;;;;;28.73;20.15;;;16.00;99.90;;;;;;5107221;27;20103;-63
2023/10/13 02:15:52;;;;;;;27.63;19.10;;;16.00;99.90;;;;;;5109754;27;20401;-63
2023/10/13 02:18:26;;;;;;;31.17;20.42;;;16.00;99.90;;;;;;5106706;27;20478;-61
2023/10/13 02:21:04;;;;;;;29.17;19.92;;;16.00;99.90;;;;;;5108173;27;20156;-61
2023/10/13 02:23:30;;;;;;;32.65;19.55;;;16.00;99.90;;;;;;5115066;27;20501;-63
2023/10/13 02:26:12;;;;;;;25.02;19.15;;;16.00;99.90;;;;;;5131017;27;20118;-64
2023/10/13 02:28:38;;;;;;;29.85;19.10;;;16.00;99.90;;;;;;5102729;27;20117;-63
2023/10/13 02:31:04;;;;;;;31.45;19.92;;;16.00;99.90;;;;;;5102011;27;20462;-62
2023/10/13 02:33:31;;;;;;;28.98;18.52;;;16.00;99.90;;;;;;5107547;27;20084;-63
2023/10/13 02:35:58;;;;;;;28.20;19.63;;;16.00;99.90;;;;;;5130614;27;20076;-62
2023/10/13 02:38:33;;;;;;;25.67;18.27;;;16.00;99.90;;;;;;5119397;27;20038;-63
2023/10/13 02:41:05;;;;;;;26.88;18.00;;;16.00;99.90;;;;;;5110566;27;20049;-62
2023/10/13 02:43:35;;;;;;;28.60;17.77;;;16.00;99.90;;;;;;5104408;27;20047;-63
2023/10/13 02:46:02;;;;;;;29.40;18.55;;;16.00;99.90;;;;;;5131095;27;20043;-63
2023/10/13 02:48:41;;;;;;;28.08;17.45;;;16.00;99.90;;;;;;5124165;27;20045;-63
2023/10/13 02:51:18;;;;;;;27.08;17.23;;;16.00;99.90;;;;;;5100867;27;20042;-63
2023/10/13 02:53:52;;;;;;;28.27;17.23;;;16.00;99.90;;;;;;5099991;27;20104;-62
2023/10/13 02:56:20;;;;;;;25.52;17.08;;;16.00;99.90;;;;;;5096583;27;20031;-62
2023/10/13 02:58:53;;;;;;;25.65;16.65;;;16.00;99.90;;;;;;5093729;27;20504;-62
2023/10/13 03:01:20;;;;;;;25.27;17.20;;;16.00;99.90;;;;;;5104743;27;20394;-61
2023/10/13 03:03:49;;;;;;;28.13;15.75;;;16.00;99.90;;;;;;5096570;27;20031;-63
2023/10/13 03:06:15;;;;;;;24.88;16.77;;;16.00;99.90;;;;;;5097881;28;20063;-63
2023/10/13 03:08:43;;;;;;;26.15;15.98;;;16.00;99.90;;;;;;5128919;27;20069;-63
2023/10/13 03:11:09;;;;;;;22.63;15.90;;;16.00;99.90;;;;;;5125018;27;20031;-63
2023/10/13 03:13:36;;;;;;;25.58;16.65;;;15.90;99.90;;;;;;5112855;28;20074;-63
2023/10/13 03:16:11;;;;;;;27.02;16.88;;;16.00;99.90;;;;;;5090829;27;20059;-62
2023/10/13 03:18:38;;;;;;;23.25;15.60;;;16.00;99.90;;;;;;5123043;27;20069;-62
2023/10/13 03:21:04;;;;;;;25.45;16.02;;;16.00;99.90;;;;;;5104536;28;20111;-63
2023/10/13 03:23:45;;;;;;;24.50;16.52;;;16.00;99.90;;;;;;5084845;27;20177;-62
2023/10/13 03:26:11;;;;;;;21.92;15.90;;;16.00;99.90;;;;;;5096446;27;20042;-62
2023/10/13 03:28:38;;;;;;;22.00;16.02;;;16.00;99.90;;;;;;5098336;28;20035;-62
2023/10/13 03:31:04;;;;;;;27.83;16.40;;;16.00;99.90;;;;;;5114167;27;20494;-63
2023/10/13 03:33:32;;;;;;;26.50;17.15;;;16.00;99.90;;;;;;5104540;28;20054;-62
2023/10/13 03:36:05;;;;;;;24.25;16.13;;;16.00;99.90;;;;;;5098640;28;20046;-63
2023/10/13 03:38:36;;;;;;;22.85;16.88;;;16.00;99.90;;;;;;5104341;28;20078;-63
2023/10/13 03:41:12;;;;;;;25.95;15.98;;;16.00;99.90;;;;;;5099190;28;20047;-63
2023/10/13 03:44:07;;;;;;;23.80;16.35;;;16.00;99.90;;;;;;5099264;28;20071;-63
2023/10/13 03:46:36;;;;;;;25.77;16.58;;;16.00;99.90;;;;;;5083550;28;20430;-62
2023/10/13 03:49:06;;;;;;;26.20;17.20;;;16.00;99.90;;;;;;5106558;28;20040;-61
2023/10/13 03:51:31;;;;;;;23.45;16.70;;;16.00;99.90;;;;;;5085461;27;20156;-63
2023/10/13 03:53:58;;;;;;;24.75;17.35;;;16.00;99.90;;;;;;5110883;27;20114;-62
2023/10/13 03:56:28;;;;;;;24.67;17.00;;;16.00;99.90;;;;;;5116198;27;20050;-63
2023/10/13 03:59:06;;;;;;;23.23;16.38;;;16.00;99.90;;;;;;5107105;27;20042;-62
2023/10/13 04:01:34;;;;;;;27.23;16.92;;;16.00;99.90;;;;;;5107144;27;20047;-63
2023/10/13 04:04:04;;;;;;;23.85;16.48;;;16.00;99.90;;;;;;5110690;27;20031;-63
2023/10/13 04:17:23;;;;;;;18.83;14.73;;;16.00;99.90;;;;;;5105253;27;20043;-62
2023/10/13 04:25:35;;;;;;;20.70;15.70;;;16.00;99.90;;;;;;5108077;27;20055;-63
2023/10/13 04:41:39;;;;;;;22.65;15.88;;;15.90;99.90;;;;;;5105333;27;20039;-62
2023/10/13 04:47:09;;;;;;;20.67;15.20;;;16.00;99.90;;;;;;5064297;28;20045;-62
2023/10/13 04:54:49;;;;;;;17.15;14.55;;;15.90;99.90;;;;;;5052790;28;20135;-62
2023/10/13 06:29:50;;;;;;;6.28;3.67;;;15.80;99.90;;;;;;5129200;27;20141;-62
2023/10/13 06:32:16;;;;;;;5.15;4.13;;;15.80;99.90;;;;;;5110322;27;20118;-62
2023/10/13 06:34:45;;;;;;;6.78;4.40;;;15.80;99.90;;;;;;5113254;27;20456;-64
2023/10/13 06:37:33;;;;;;;7.20;4.38;;;15.90;99.90;;;;;;5094583;27;20039;-63
2023/10/13 06:40:22;;;;;;;8.95;4.88;;;15.90;99.90;;;;;;5115978;27;20036;-63
2023/10/13 06:42:48;;;;;;;6.45;4.85;;;15.90;99.90;;;;;;5111275;27;20038;-63
2023/10/13 06:45:16;;;;;;;5.85;4.10;;;15.90;99.90;;;;;;5113980;27;20043;-62
2023/10/13 06:47:43;;;;;;;6.50;4.43;;;16.00;99.90;;;;;;5097032;27;20126;-63
2023/10/13 06:50:15;;;;;;;9.40;5.07;;;16.00;99.90;;;;;;5130466;27;20039;-64
2023/10/13 06:52:43;;;;;;;5.93;4.07;;;16.00;99.90;;;;;;5130891;27;20118;-63
2023/10/13 06:55:17;;;;;;;10.15;4.47;;;16.00;99.90;;;;;;5112468;27;20046;-63
2023/10/13 06:57:46;;;;;;;7.95;3.92;;;16.10;99.90;;;;;;5111090;27;20035;-64
2023/10/13 07:00:52;;;;;;;12.30;4.57;;;16.10;99.90;;;;;;5111444;27;20035;-63
2023/10/13 07:03:17;;;;;;;;;;;16.10;99.90;;;;;;5106359;27;20044;-63
2023/10/13 07:05:43;;;;;;;5.55;3.58;;;16.10;99.90;;;;;;5112607;27;19960;-64
2023/10/13 07:08:14;;;;;;;7.20;4.43;;;16.10;99.90;;;;;;5112635;27;20446;-63
2023/10/13 07:11:08;;;;;;;9.38;4.28;;;16.10;99.90;;;;;;5112972;27;20066;-63
2023/10/13 07:13:38;;;;;;;7.47;3.78;;;16.10;99.90;;;;;;5095699;27;20054;-64
2023/10/13 07:16:12;;;;;;;13.52;4.55;;;16.10;99.90;;;;;;5076302;27;20130;-63
2023/10/13 07:18:49;;;;;;;9.70;4.30;;;16.10;99.90;;;;;;5100434;27;20417;-63
2023/10/13 07:21:15;;;;;;;8.73;3.63;;;16.10;99.90;;;;;;5099331;28;20059;-63
2023/10/13 07:24:00;;;;;;;10.95;4.30;;;16.20;99.90;;;;;;5111502;28;20515;-63
2023/10/13 07:26:26;;;;;;;8.63;4.80;;;16.20;99.90;;;;;;5095375;27;20038;-63
2023/10/13 07:28:52;;;;;;;9.55;4.22;;;16.10;99.90;;;;;;5112605;28;20039;-63
2023/10/13 07:31:20;;;;;;;13.05;5.20;;;16.10;99.90;;;;;;5108776;28;20048;-62
2023/10/13 07:33:47;;;;;;;11.07;4.78;;;16.20;99.90;;;;;;5107481;28;20473;-64
2023/10/13 07:36:16;;;;;;;10.95;4.50;;;16.20;99.90;;;;;;5112753;28;20108;-63
2023/10/13 07:38:59;;;;;;;8.43;4.03;;;16.20;99.90;;;;;;5112826;28;20035;-63
2023/10/13 07:41:30;;;;;;;8.98;4.47;;;16.20;99.90;;;;;;5112448;28;20039;-64
2023/10/13 07:43:59;;;;;;;10.98;5.10;;;16.20;99.90;;;;;;5097385;28;20096;-63
2023/10/13 07:46:31;;;;;;;13.75;5.05;;;16.20;99.90;;;;;;5087541;28;20050;-63
2023/10/13 07:49:08;;;;;;;10.50;5.65;;;16.20;99.90;;;;;;5104174;28;20047;-63
2023/10/13 07:51:44;;;;;;;8.80;4.72;;;16.20;99.90;;;;;;5098143;28;20157;-62
2023/10/13 07:54:13;;;;;;;10.13;5.38;;;16.20;99.90;;;;;;5100112;28;20112;-64
2023/10/13 07:56:39;;;;;;;12.75;4.90;;;16.20;99.90;;;;;;5104373;28;20063;-63
2023/10/13 07:59:08;;;;;;;13.02;4.57;;;16.30;99.90;;;;;;5073701;28;20142;-63
2023/10/13 08:01:34;;;;;;;11.73;5.50;;;16.30;99.90;;;;;;5104715;28;20035;-62
2023/10/13 08:04:09;;;;;;;12.93;5.80;;;16.20;99.90;;;;;;5094902;28;20039;-63
2023/10/13 08:06:36;;;;;;;11.75;4.40;;;16.30;99.90;;;;;;5110729;28;20035;-63
2023/10/13 08:09:29;;;;;;;12.20;4.93;;;16.40;99.90;;;;;;5098796;28;21471;-63
2023/10/13 08:11:55;;;;;;;8.93;4.82;;;16.30;99.90;;;;;;5094829;28;20040;-63
2023/10/13 08:14:28;;;;;;;10.00;4.68;;;16.30;99.90;;;;;;5111098;28;20078;-64
2023/10/13 08:19:27;;;;;;;11.75;4.60;;;16.30;99.90;;;;;;5106254;28;20031;-63
2023/10/13 08:22:23;;;;;;;9.15;5.50;;;16.30;99.90;;;;;;5111850;28;20039;-63
2023/10/13 08:48:08;;;;;;;11.27;6.95;;;16.60;99.90;;;;;;5115708;27;20393;-63
2023/10/13 09:04:20;;;;;;;10.10;6.07;;;17.10;99.90;;;;;;5115372;27;20375;-63
2023/10/13 09:09:34;;;;;;;9.77;5.60;;;17.20;99.90;;;;;;5115305;27;20099;-63
2023/10/13 09:12:09;;;;;;;9.07;5.50;;;17.20;99.90;;;;;;5115130;27;20051;-63
2023/10/13 09:14:38;;;;;;;12.23;5.55;;;17.20;99.90;;;;;;5114837;27;20134;-63
2023/10/13 09:17:54;;;;;;;12.35;5.53;;;17.30;99.90;;;;;;5114726;27;20035;-63
2023/10/13 09:19:56;;;;;;;13.70;5.80;;;17.40;99.90;;;;;;5114946;27;20077;-63
2023/10/13 09:22:35;;;;;;;12.18;5.13;;;17.40;99.90;;;;;;5114697;27;20047;-63
2023/10/13 09:25:02;;;;;;;11.13;5.28;;;17.40;99.90;;;;;;5113720;27;20142;-64
2023/10/13 09:27:33;;;;;;;10.55;5.72;;;17.40;99.90;;;;;;5095177;27;20050;-63
2023/10/13 09:30:24;;;;;;;10.32;5.15;;;17.50;99.90;;;;;;5115645;27;20075;-63
2023/10/13 09:33:15;;;;;;;12.38;5.65;;;17.50;99.90;;;;;;5115655;27;20043;-63
2023/10/13 09:35:49;;;;;;;14.23;5.38;;;17.50;99.90;;;;;;5114217;27;20107;-63
2023/10/13 09:38:18;;;;;;;13.48;5.15;;;17.50;99.90;;;;;;5111694;27;20039;-63
2023/10/13 09:40:51;;;;;;;15.32;5.78;;;17.60;99.90;;;;;;5110574;27;20031;-63
2023/10/13 09:43:20;;;;;;;13.73;4.80;;;17.60;99.90;;;;;;5114529;27;20047;-63
2023/10/13 09:46:07;;;;;;;12.18;4.78;;;17.70;99.90;;;;;;5097484;27;20075;-63
2023/10/13 09:48:45;;;;;;;13.25;5.15;;;17.70;99.90;;;;;;5096433;27;20490;-63
2023/10/13 09:51:19;;;;;;;12.32;4.75;;;17.60;99.90;;;;;;5114683;27;20039;-62
2023/10/13 09:54:09;;;;;;;10.20;4.70;;;17.70;99.90;;;;;;5114089;27;20070;-63
2023/10/13 09:56:51;;;;;;;11.70;5.10;;;17.70;99.90;;;;;;5114159;27;20046;-63
2023/10/13 09:59:25;;;;;;;9.68;4.40;;;17.70;99.90;;;;;;5113755;27;20055;-63
2023/10/13 10:01:58;;;;;;;10.07;5.07;;;17.80;99.90;;;;;;5114080;27;20035;-63
2023/10/13 10:04:24;;;;;;;13.05;4.65;;;17.80;99.90;;;;;;5114125;27;20118;-63
2023/10/13 10:06:57;;;;;;;11.77;4.90;;;17.90;99.90;;;;;;5096752;27;20130;-63
2023/10/13 10:09:34;;;;;;;14.73;5.05;;;17.90;99.90;;;;;;5113883;27;20505;-63
2023/10/13 10:12:14;;;;;;;12.65;5.28;;;18.00;99.90;;;;;;5112535;27;20035;-63
2023/10/13 10:14:56;;;;;;;8.13;4.88;;;18.00;99.90;;;;;;5113783;27;20125;-64
2023/10/13 10:17:22;;;;;;;9.40;4.45;;;18.10;99.90;;;;;;5113821;27;20469;-62
2023/10/13 10:19:48;;;;;;;13.00;5.10;;;18.20;99.90;;;;;;5131624;27;20122;-63
2023/10/13 10:22:33;;;;;;;13.75;5.35;;;18.30;99.90;;;;;;5113557;27;20510;-63
2023/10/13 10:24:59;;;;;;;9.00;4.30;;;18.30;99.90;;;;;;5113507;27;20100;-63
2023/10/13 10:27:29;;;;;;;12.25;5.03;;;18.40;99.90;;;;;;5095796;27;20051;-64
2023/10/13 10:29:56;;;;;;;12.63;4.70;;;18.50;99.90;;;;;;5113009;27;20508;-63
2023/10/13 10:32:33;;;;;;;16.48;4.82;;;18.50;99.90;;;;;;5113057;27;20062;-63
2023/10/13 10:35:14;;;;;;;11.82;6.28;;;18.50;99.90;;;;;;5095689;27;20055;-63
2023/10/13 10:37:46;;;;;;;13.38;4.70;;;18.50;99.90;;;;;;5113246;27;20043;-63
2023/10/13 10:40:32;;;;;;;14.02;4.25;;;18.50;99.90;;;;;;5113313;27;20562;-63
2023/10/13 10:43:01;;;;;;;11.60;4.47;;;18.50;99.90;;;;;;5112844;27;20047;-62
2023/10/13 10:45:33;;;;;;;10.32;4.40;;;18.50;99.90;;;;;;5131461;27;20053;-63
2023/10/13 10:47:59;;;;;;;9.93;5.13;;;18.50;99.90;;;;;;5113633;27;21058;-63
2023/10/13 10:50:34;;;;;;;14.43;5.00;;;18.50;99.90;;;;;;5113315;27;20039;-63
2023/10/13 10:53:08;;;;;;;13.35;4.63;;;18.50;99.90;;;;;;5113021;27;20047;-63
2023/10/13 10:55:38;;;;;;;9.95;4.30;;;18.50;99.90;;;;;;5113038;27;20037;-63
2023/10/13 10:58:07;;;;;;;14.48;4.57;;;18.50;99.90;;;;;;5095273;27;20039;-63
2023/10/13 11:00:50;;;;;;;13.77;4.68;;;18.50;99.90;;;;;;5107593;27;20426;-63
2023/10/13 11:03:17;;;;;;;15.70;5.75;;;18.60;99.90;;;;;;5098287;27;20049;-63
2023/10/13 11:05:46;;;;;;;11.13;4.47;;;18.60;99.90;;;;;;5107940;27;20051;-63
2023/10/13 11:08:32;;;;;;;15.00;4.57;;;18.70;99.90;;;;;;5094549;27;20120;-63
2023/10/13 11:11:01;;;;;;;12.38;4.40;;;18.70;99.90;;;;;;5097769;27;20047;-63
2023/10/13 11:13:31;;;;;;;15.07;5.00;;;18.70;99.90;;;;;;5097590;27;20103;-63
2023/10/13 11:15:58;;;;;;;16.38;4.68;;;18.70;99.90;;;;;;5102872;27;20035;-64
2023/10/13 11:18:40;;;;;;;11.15;4.63;;;18.70;99.90;;;;;;5096286;28;20039;-63
2023/10/13 11:21:07;;;;;;;11.80;4.10;;;18.70;99.90;;;;;;5105749;27;20478;-63
2023/10/13 11:23:36;;;;;;;12.27;4.43;;;18.70;99.90;;;;;;5100430;27;20126;-63
2023/10/13 11:26:04;;;;;;;12.77;4.55;;;18.80;99.90;;;;;;5106073;27;20758;-63
2023/10/13 11:28:31;;;;;;;14.38;4.80;;;18.70;99.90;;;;;;5081048;27;20097;-63
2023/10/13 11:30:58;;;;;;;9.20;4.00;;;18.80;99.90;;;;;;5096667;27;20515;-64
2023/10/13 11:33:28;;;;;;;13.95;5.35;;;18.90;99.90;;;;;;5099158;28;20095;-63
2023/10/13 11:35:55;;;;;;;15.02;4.88;;;19.10;99.90;;;;;;5078300;28;20126;-63
2023/10/13 11:38:28;;;;;;;12.02;4.78;;;19.10;99.90;;;;;;5091740;28;20051;-64
2023/10/13 11:43:52;;;;;;;10.55;5.20;;;19.20;99.90;;;;;;5111858;28;20062;-64
2023/10/13 11:46:55;;;;;;;17.45;5.18;;;19.20;99.90;;;;;;5098527;28;20081;-63
2023/10/13 11:51:50;;;;;;;11.55;4.45;;;19.30;99.90;;;;;;5090914;28;20076;-63
2023/10/13 11:54:22;;;;;;;14.57;4.47;;;19.20;99.90;;;;;;5123310;28;20454;-63
2023/10/13 11:56:49;;;;;;;10.07;4.72;;;19.20;99.90;;;;;;5119895;28;20500;-64
2023/10/13 11:59:18;;;;;;;13.70;4.95;;;19.20;99.90;;;;;;5083289;28;20486;-63
2023/10/13 12:04:40;;;;;;;9.93;4.13;;;19.20;99.90;;;;;;5105772;28;20101;-64
2023/10/13 12:10:15;;;;;;;11.68;4.85;;;19.20;99.90;;;;;;5050811;28;20048;-64
2023/10/13 12:12:43;;;;;;;12.68;4.63;;;19.20;99.90;;;;;;5068780;28;20056;-64
2023/10/13 12:15:09;;;;;;;11.95;4.50;;;19.10;99.90;;;;;;5054321;28;20484;-64
2023/10/13 12:17:36;;;;;;;16.17;4.90;;;19.20;99.90;;;;;;5053319;28;20053;-64
2023/10/13 12:20:10;;;;;;;14.82;5.18;;;19.20;99.90;;;;;;5070306;28;20091;-63
2023/10/13 12:22:39;;;;;;;13.45;5.38;;;19.20;99.90;;;;;;5054202;28;20060;-64
2023/10/13 12:25:18;;;;;;;14.98;5.63;;;19.20;99.90;;;;;;5069330;28;20086;-64
2023/10/13 12:27:48;;;;;;;12.05;4.72;;;19.20;99.90;;;;;;5070750;28;20477;-63
2023/10/13 12:30:16;;;;;;;13.85;4.88;;;19.20;99.90;;;;;;5036546;28;20139;-63
2023/10/13 12:32:53;;;;;;;16.60;4.60;;;19.20;99.90;;;;;;5053955;28;20384;-64
2023/10/13 12:35:35;;;;;;;14.55;5.15;;;19.30;99.90;;;;;;5053981;28;20044;-63
2023/10/13 12:38:08;;;;;;;10.60;4.63;;;19.30;99.90;;;;;;5052565;28;20040;-63
2023/10/13 12:49:07;;;;;;;12.77;5.28;;;19.50;99.90;;;;;;5115387;27;20122;-64
2023/10/13 12:54:13;;;;;;;13.88;4.75;;;19.60;99.90;;;;;;5115041;27;20086;-64
2023/10/13 12:56:41;;;;;;;15.93;5.53;;;19.60;99.90;;;;;;5133714;27;20057;-64
2023/10/13 12:59:13;;;;;;;8.35;4.70;;;19.60;99.90;;;;;;5097302;27;20039;-64
2023/10/13 13:01:43;;;;;;;15.90;5.63;;;19.60;99.90;;;;;;5133744;27;20469;-63
2023/10/13 13:04:18;;;;;;;14.10;5.32;;;19.70;99.90;;;;;;5114577;27;20074;-64
2023/10/13 13:06:44;;;;;;;13.50;5.38;;;19.70;99.90;;;;;;5115469;27;20409;-64
2023/10/13 13:09:09;;;;;;;12.15;5.10;;;19.70;99.90;;;;;;5133558;27;20123;-63
2023/10/13 13:11:42;;;;;;;11.98;4.35;;;19.70;99.90;;;;;;5133490;27;20366;-63
2023/10/13 13:14:08;;;;;;;15.35;5.28;;;19.70;99.90;;;;;;5115069;27;20528;-64
2023/10/13 13:16:34;;;;;;;13.40;5.38;;;19.80;99.90;;;;;;5114587;27;20073;-64
2023/10/13 13:19:03;;;;;;;16.30;5.07;;;19.80;99.90;;;;;;5114681;27;20046;-63
2023/10/13 13:21:29;;;;;;;11.85;5.18;;;19.80;99.90;;;;;;5114372;27;20064;-64
2023/10/13 13:23:55;;;;;;;12.73;4.97;;;19.80;99.90;;;;;;5113586;27;20051;-63
2023/10/13 13:26:21;;;;;;;16.05;5.65;;;19.70;99.90;;;;;;5114633;27;20043;-63
2023/10/13 13:28:51;;;;;;;19.73;5.50;;;19.60;99.90;;;;;;5112370;27;20092;-64
2023/10/13 13:31:18;;;;;;;14.45;5.05;;;19.50;99.90;;;;;;5113924;27;20091;-64
2023/10/13 13:33:44;;;;;;;16.42;6.03;;;19.40;99.90;;;;;;5114735;27;20053;-63
2023/10/13 13:36:13;;;;;;;13.55;5.35;;;19.30;99.90;;;;;;5097380;27;20043;-63
2023/10/13 13:38:40;;;;;;;17.17;5.50;;;19.20;99.90;;;;;;5114532;27;20465;-64
2023/10/13 13:41:16;;;;;;;12.90;5.65;;;19.10;99.90;;;;;;5112551;27;20035;-63
2023/10/13 13:46:32;;;;;;;14.57;6.32;;;18.90;99.90;;;;;;5113732;27;20047;-64
2023/10/13 13:49:00;;;;;;;14.05;5.80;;;18.80;99.90;;;;;;5115774;27;20548;-63
2023/10/13 13:51:31;;;;;;;14.80;6.18;;;18.70;99.90;;;;;;5131784;27;20023;-63
2023/10/13 13:53:58;;;;;;;15.43;6.03;;;18.60;99.90;;;;;;5114451;27;20042;-64
2023/10/13 13:56:28;;;;;;;13.27;5.90;;;18.50;99.90;;;;;;5079955;27;20097;-63
2023/10/13 13:58:55;;;;;;;14.93;6.25;;;18.50;99.90;;;;;;5082554;27;20046;-63
2023/10/13 14:01:21;;;;;;;19.55;6.03;;;18.40;99.90;;;;;;5112931;27;20410;-64
2023/10/13 14:03:50;;;;;;;13.98;6.38;;;18.40;99.90;;;;;;5096354;27;20052;-64
2023/10/13 14:06:24;;;;;;;11.30;5.55;;;18.40;99.90;;;;;;5097971;27;20126;-64
2023/10/13 14:08:59;;;;;;;17.95;6.32;;;18.40;99.90;;;;;;5089153;27;20051;-63
2023/10/13 14:16:53;;;;;;;12.85;6.28;;;18.30;99.90;;;;;;5106802;27;20659;-64
2023/10/13 14:19:26;;;;;;;16.65;6.25;;;18.40;99.90;;;;;;5096108;27;20046;-64
2023/10/13 14:21:55;;;;;;;16.65;6.15;;;18.40;99.90;;;;;;5077947;27;20059;-63
2023/10/13 14:24:27;;;;;;;18.30;6.18;;;18.40;99.90;;;;;;5099146;27;20043;-64
2023/10/13 14:26:54;;;;;;;12.68;6.00;;;18.40;99.90;;;;;;5106478;27;20104;-63
2023/10/13 14:29:19;;;;;;;14.35;5.95;;;18.40;99.90;;;;;;5097311;27;20510;-64
2023/10/13 14:31:48;;;;;;;14.20;5.90;;;18.40;99.90;;;;;;5097157;27;20069;-63
2023/10/13 14:34:14;;;;;;;14.52;5.68;;;18.50;99.90;;;;;;5096144;27;20044;-64
2023/10/13 14:36:40;;;;;;;11.80;5.80;;;18.50;99.90;;;;;;5096096;27;20058;-63
2023/10/13 14:39:10;;;;;;;15.63;5.43;;;18.50;99.90;;;;;;5100567;27;20385;-64
2023/10/13 14:41:38;;;;;;;14.65;5.70;;;18.50;99.90;;;;;;5113820;27;20030;-64
2023/10/13 14:44:05;;;;;;;10.85;5.97;;;18.50;99.90;;;;;;5112745;27;20032;-64
2023/10/13 14:46:31;;;;;;;16.33;5.95;;;18.50;99.90;;;;;;5095291;27;20054;-64
2023/10/13 14:48:57;;;;;;;14.90;5.78;;;18.50;99.90;;;;;;5094708;27;20043;-63
2023/10/13 14:51:25;;;;;;;14.10;5.63;;;18.50;99.90;;;;;;5111771;27;20038;-64
2023/10/13 14:53:55;;;;;;;16.48;5.80;;;18.50;99.90;;;;;;5119770;27;20054;-64
2023/10/13 14:56:25;;;;;;;11.70;6.30;;;18.60;99.90;;;;;;5076452;27;20089;-64
2023/10/13 14:58:52;;;;;;;19.30;6.95;;;18.50;99.90;;;;;;5094476;27;20043;-64
2023/10/13 15:01:20;;;;;;;14.93;6.80;;;18.40;99.90;;;;;;5095760;27;20035;-63
2023/10/13 15:03:47;;;;;;;17.13;6.72;;;18.20;99.90;;;;;;5094949;27;20065;-63
2023/10/13 15:06:20;;;;;;;15.02;6.60;;;18.20;99.90;;;;;;5113160;27;20047;-64
2023/10/13 15:08:48;;;;;;;13.63;7.00;;;18.10;99.90;;;;;;5099609;27;20046;-63
2023/10/13 15:11:14;;;;;;;16.13;6.70;;;18.00;99.90;;;;;;5096544;27;20425;-63
2023/10/13 15:13:41;;;;;;;14.52;6.75;;;17.90;99.90;;;;;;5094788;27;20093;-64
2023/10/13 15:16:36;;;;;;;18.30;8.82;;;17.80;99.90;;;;;;5094710;27;20030;-63
2023/10/13 15:19:06;;;;;;;16.42;7.32;;;17.80;99.90;;;;;;5092948;27;20074;-64
2023/10/13 15:21:35;;;;;;;14.73;6.93;;;17.70;99.90;;;;;;5088364;28;20592;-64
2023/10/13 15:24:14;;;;;;;14.55;7.55;;;17.70;99.90;;;;;;5108664;27;20047;-63
2023/10/13 15:26:44;;;;;;;20.70;8.43;;;17.60;99.90;;;;;;5110713;27;20595;-64
2023/10/13 15:29:12;;;;;;;18.38;6.95;;;17.60;99.90;;;;;;5085839;28;20099;-64
2023/10/13 15:31:41;;;;;;;20.48;7.40;;;17.60;99.90;;;;;;5115629;27;20054;-63
2023/10/13 15:34:13;;;;;;;13.57;7.13;;;17.50;99.90;;;;;;5111443;28;20484;-64
2023/10/13 15:36:43;;;;;;;11.60;6.45;;;17.50;99.90;;;;;;5106330;28;20070;-64
2023/10/13 15:39:15;;;;;;;14.95;7.65;;;17.50;99.90;;;;;;5108018;28;20036;-64
2023/10/13 15:41:42;;;;;;;14.13;7.60;;;17.50;99.90;;;;;;5093710;28;20052;-64
2023/10/13 15:44:12;;;;;;;19.98;7.57;;;17.40;99.90;;;;;;5110892;28;20082;-63
2023/10/13 15:46:39;;;;;;;20.95;6.97;;;17.40;99.90;;;;;;5079585;27;20051;-63
2023/10/13 15:49:05;;;;;;;16.55;7.32;;;17.40;99.90;;;;;;5107723;27;20558;-64
2023/10/13 15:51:37;;;;;;;13.48;6.68;;;17.40;99.90;;;;;;5115788;27;20039;-64
2023/10/13 15:54:04;;;;;;;15.98;7.45;;;17.40;99.90;;;;;;5118391;27;20488;-63
2023/10/13 15:56:32;;;;;;;12.07;5.70;;;17.40;99.90;;;;;;5099885;27;20035;-64
2023/10/13 15:59:01;;;;;;;10.18;5.78;;;17.40;99.90;;;;;;5098115;27;20073;-63
2023/10/13 16:01:28;;;;;;;7.85;4.43;;;17.40;99.90;;;;;;5097466;27;20096;-64
2023/10/13 16:03:54;;;;;;;12.02;4.45;;;17.30;99.90;;;;;;5098415;27;20044;-63
2023/10/13 16:06:21;;;;;;;7.47;3.83;;;17.30;99.90;;;;;;5115410;27;20074;-64
2023/10/13 16:08:48;;;;;;;10.10;4.03;;;17.30;99.90;;;;;;5116193;27;20050;-64
2023/10/13 16:11:17;;;;;;;7.13;3.90;;;17.30;99.90;;;;;;5116906;27;20438;-64
2023/10/13 16:13:44;;;;;;;11.50;3.95;;;17.30;99.90;;;;;;5115969;27;20035;-64
2023/10/13 16:16:16;;;;;;;9.30;3.88;;;17.30;99.90;;;;;;5115681;27;20085;-64
2023/10/13 16:18:44;;;;;;;6.97;3.67;;;17.30;99.90;;;;;;5133921;27;20039;-64
2023/10/13 16:21:12;;;;;;;6.22;3.72;;;17.30;99.90;;;;;;5094575;27;20441;-63